createdAt,value
2018-01-21T00:00:46.287Z,40.37
2018-01-21T00:01:46.246Z,39.99
2018-01-21T00:02:46.206Z,40.08
2018-01-21T00:03:46.163Z,40.28
2018-01-21T00:04:46.126Z,40.47
2018-01-21T00:05:46.083Z,40.47
2018-01-21T00:06:46.040Z,39.99
2018-01-21T00:07:46.002Z,40.47
2018-01-21T00:08:45.962Z,40.47
2018-01-21T00:09:45.920Z,40.08
2018-01-21T00:10:45.882Z,40.28
2018-01-21T00:11:45.838Z,39.99
2018-01-21T00:12:45.799Z,40.28
2018-01-21T00:13:45.756Z,40.47
2018-01-21T00:14:45.771Z,40.37
2018-01-21T00:15:45.675Z,40.37
2018-01-21T00:16:45.635Z,40.47
2018-01-21T00:17:45.594Z,40.56
2018-01-21T00:18:45.551Z,40.47
2018-01-21T00:19:45.514Z,40.47
2018-01-21T00:20:45.472Z,40.18
2018-01-21T00:21:45.430Z,40.18
2018-01-21T00:22:45.387Z,40.08
2018-01-21T00:23:45.359Z,40.08
2018-01-21T00:24:45.306Z,40.66
2018-01-21T00:25:45.292Z,40.28
2018-01-21T00:26:45.228Z,40.18
2018-01-21T00:27:45.184Z,39.99
2018-01-21T00:28:45.143Z,40.18
2018-01-21T00:29:45.105Z,40.37
2018-01-21T00:30:45.062Z,40.47
2018-01-21T00:31:45.029Z,39.99
2018-01-21T00:32:44.980Z,39.89
2018-01-21T00:33:44.941Z,40.18
2018-01-21T00:34:44.899Z,40.47
2018-01-21T00:35:44.858Z,40.37
2018-01-21T00:36:44.818Z,39.99
2018-01-21T00:37:44.776Z,39.89
2018-01-21T00:38:44.733Z,40.08
2018-01-21T00:39:44.700Z,40.37
2018-01-21T00:40:44.653Z,40.28
2018-01-21T00:41:44.613Z,40.08
2018-01-21T00:42:44.571Z,40.18
2018-01-21T00:43:44.531Z,40.28
2018-01-21T00:44:44.491Z,40.28
2018-01-21T00:45:44.451Z,39.51
2018-01-21T00:46:44.408Z,39.70
2018-01-21T00:47:44.367Z,39.79
2018-01-21T00:48:44.332Z,39.70
2018-01-21T00:49:44.285Z,40.28
2018-01-21T00:50:44.295Z,40.28
2018-01-21T00:51:44.205Z,39.51
2018-01-21T00:52:44.165Z,40.18
2018-01-21T00:53:44.123Z,40.18
2018-01-21T00:54:44.081Z,39.51
2018-01-21T00:55:44.042Z,40.28
2018-01-21T00:56:44.006Z,40.18
2018-01-21T00:57:43.962Z,40.28
2018-01-21T00:58:43.922Z,40.18
2018-01-21T00:59:43.879Z,40.18
2018-01-21T01:00:43.836Z,40.08
2018-01-21T01:01:43.798Z,39.51
2018-01-21T01:02:43.758Z,40.28
2018-01-21T01:03:43.715Z,40.28
2018-01-21T01:04:43.674Z,40.28
2018-01-21T01:05:43.632Z,40.28
2018-01-21T01:06:43.598Z,39.51
2018-01-21T01:07:43.552Z,39.89
2018-01-21T01:08:43.513Z,39.79
2018-01-21T01:09:43.472Z,39.89
2018-01-21T01:10:43.431Z,39.41
2018-01-21T01:11:43.390Z,39.51
2018-01-21T01:12:43.351Z,39.33
2018-01-21T01:13:43.310Z,39.51
2018-01-21T01:14:43.267Z,39.70
2018-01-21T01:15:43.227Z,39.41
2018-01-21T01:16:43.186Z,39.31
2018-01-21T01:17:43.173Z,39.41
2018-01-21T01:18:43.105Z,39.89
2018-01-21T01:19:43.066Z,40.08
2018-01-21T01:20:43.024Z,40.08
2018-01-21T01:21:42.985Z,39.89
2018-01-21T01:22:42.944Z,39.89
2018-01-21T01:23:42.902Z,39.89
2018-01-21T01:24:42.861Z,39.89
2018-01-21T01:25:42.821Z,39.70
2018-01-21T01:26:42.779Z,39.99
2018-01-21T01:27:42.741Z,39.79
2018-01-21T01:28:42.699Z,39.89
2018-01-21T01:29:42.663Z,39.70
2018-01-21T01:30:42.617Z,40.28
2018-01-21T01:31:42.575Z,40.18
2018-01-21T01:32:42.536Z,39.41
2018-01-21T01:33:42.496Z,39.61
2018-01-21T01:34:42.449Z,39.51
2018-01-21T01:35:42.416Z,40.18
2018-01-21T01:36:42.375Z,40.18
2018-01-21T01:37:42.333Z,39.99
2018-01-21T01:38:42.292Z,40.28
2018-01-21T01:39:42.253Z,40.28
2018-01-21T01:40:42.211Z,39.51
2018-01-21T01:41:42.171Z,39.79
2018-01-21T01:42:42.130Z,39.61
2018-01-21T01:43:42.087Z,39.41
2018-01-21T01:44:42.050Z,39.51
2018-01-21T01:45:42.014Z,40.28
2018-01-21T01:46:41.968Z,39.61
2018-01-21T01:47:41.928Z,40.18
2018-01-21T01:48:41.887Z,39.79
2018-01-21T01:49:41.847Z,39.99
2018-01-21T01:50:41.804Z,40.08
2018-01-21T01:51:41.764Z,40.08
2018-01-21T01:52:41.725Z,39.89
2018-01-21T01:53:41.684Z,39.89
2018-01-21T01:54:41.643Z,39.89
2018-01-21T01:55:41.603Z,40.08
2018-01-21T01:56:41.562Z,39.99
2018-01-21T01:57:41.521Z,39.89
2018-01-21T01:58:41.481Z,39.89
2018-01-21T01:59:41.440Z,40.28
2018-01-21T02:00:41.400Z,40.28
2018-01-21T02:01:41.361Z,40.18
2018-01-21T02:02:41.317Z,40.28
2018-01-21T02:03:41.276Z,39.89
2018-01-21T02:04:41.236Z,39.99
2018-01-21T02:05:41.198Z,40.37
2018-01-21T02:06:41.161Z,40.37
2018-01-21T02:07:41.115Z,40.47
2018-01-21T02:08:41.075Z,40.37
2018-01-21T02:09:41.033Z,40.37
2018-01-21T02:10:40.993Z,40.47
2018-01-21T02:11:40.953Z,40.08
2018-01-21T02:12:40.910Z,39.89
2018-01-21T02:13:40.873Z,40.18
2018-01-21T02:14:40.828Z,40.08
2018-01-21T02:15:40.789Z,40.18
2018-01-21T02:16:40.747Z,40.56
2018-01-21T02:17:40.708Z,40.56
2018-01-21T02:18:40.667Z,40.37
2018-01-21T02:19:40.634Z,40.47
2018-01-21T02:20:40.586Z,40.47
2018-01-21T02:21:40.546Z,40.66
2018-01-21T02:22:40.504Z,40.56
2018-01-21T02:23:40.461Z,40.76
2018-01-21T02:24:40.422Z,40.85
2018-01-21T02:25:40.383Z,40.76
2018-01-21T02:26:40.341Z,40.85
2018-01-21T02:27:40.300Z,40.85
2018-01-21T02:28:40.264Z,40.85
2018-01-21T02:29:40.221Z,40.76
2018-01-21T02:30:40.182Z,40.76
2018-01-21T02:31:40.138Z,40.76
2018-01-21T02:32:40.099Z,40.73
2018-01-21T02:33:40.058Z,40.66
2018-01-21T02:34:40.016Z,40.76
2018-01-21T02:35:39.975Z,40.76
2018-01-21T02:36:39.935Z,40.76
2018-01-21T02:37:39.894Z,40.66
2018-01-21T02:38:39.855Z,40.66
2018-01-21T02:39:39.813Z,40.76
2018-01-21T02:40:39.772Z,40.76
2018-01-21T02:41:39.731Z,40.76
2018-01-21T02:42:39.690Z,40.66
2018-01-21T02:43:39.653Z,40.85
2018-01-21T02:44:39.609Z,40.66
2018-01-21T02:45:39.567Z,40.76
2018-01-21T02:46:39.529Z,40.76
2018-01-21T02:47:39.486Z,40.76
2018-01-21T02:48:39.443Z,40.76
2018-01-21T02:49:39.404Z,40.66
2018-01-21T02:50:39.367Z,40.85
2018-01-21T02:51:39.321Z,40.56
2018-01-21T02:52:39.283Z,40.95
2018-01-21T02:53:39.242Z,40.76
2018-01-21T02:54:39.201Z,40.85
2018-01-21T02:55:39.161Z,40.56
2018-01-21T02:56:39.118Z,40.37
2018-01-21T02:57:39.077Z,40.47
2018-01-21T02:58:39.036Z,40.56
2018-01-21T02:59:39.000Z,40.56
2018-01-21T03:00:38.955Z,39.99
2018-01-21T03:01:38.915Z,40.08
2018-01-21T03:02:38.870Z,39.99
2018-01-21T03:03:38.831Z,40.47
2018-01-21T03:04:38.791Z,40.37
2018-01-21T03:05:38.754Z,39.99
2018-01-21T03:06:38.714Z,39.89
2018-01-21T03:07:38.668Z,39.89
2018-01-21T03:08:38.634Z,40.37
2018-01-21T03:09:38.587Z,40.37
2018-01-21T03:10:38.546Z,40.37
2018-01-21T03:11:38.507Z,40.18
2018-01-21T03:12:38.464Z,39.99
2018-01-21T03:13:39.432Z,40.28
2018-01-21T03:14:38.385Z,40.37
2018-01-21T03:15:38.348Z,40.28
2018-01-21T03:16:38.303Z,40.37
2018-01-21T03:17:38.261Z,40.18
2018-01-21T03:18:38.220Z,40.08
2018-01-21T03:19:38.181Z,40.08
2018-01-21T03:20:38.141Z,40.37
2018-01-21T03:21:38.099Z,40.18
2018-01-21T03:22:38.058Z,40.28
2018-01-21T03:23:38.019Z,40.28
2018-01-21T03:24:37.977Z,40.18
2018-01-21T03:25:37.936Z,39.99
2018-01-21T03:26:37.898Z,40.08
2018-01-21T03:27:37.855Z,39.99
2018-01-21T03:28:37.813Z,39.79
2018-01-21T03:29:37.779Z,40.28
2018-01-21T03:30:37.731Z,39.70
2018-01-21T03:31:37.693Z,39.79
2018-01-21T03:32:37.650Z,39.51
2018-01-21T03:33:37.611Z,39.61
2018-01-21T03:34:37.569Z,39.70
2018-01-21T03:35:37.529Z,39.51
2018-01-21T03:36:37.488Z,40.30
2018-01-21T03:37:37.499Z,39.72
2018-01-21T03:38:37.406Z,39.91
2018-01-21T03:39:37.365Z,39.91
2018-01-21T03:40:37.328Z,40.01
2018-01-21T03:41:37.287Z,39.91
2018-01-21T03:42:37.244Z,39.91
2018-01-21T03:43:37.205Z,39.91
2018-01-21T03:44:37.162Z,39.72
2018-01-21T03:45:37.122Z,39.91
2018-01-21T03:46:37.080Z,39.81
2018-01-21T03:47:37.038Z,39.70
2018-01-21T03:48:36.999Z,39.79
2018-01-21T03:49:36.955Z,39.79
2018-01-21T03:50:36.917Z,40.18
2018-01-21T03:51:36.878Z,40.18
2018-01-21T03:52:36.837Z,39.70
2018-01-21T03:53:36.796Z,39.89
2018-01-21T03:54:36.762Z,39.89
2018-01-21T03:55:36.717Z,39.89
2018-01-21T03:56:36.676Z,40.08
2018-01-21T03:57:36.635Z,39.79
2018-01-21T03:58:36.591Z,39.99
2018-01-21T03:59:36.560Z,40.08
2018-01-21T04:00:36.512Z,39.99
2018-01-21T04:01:36.474Z,40.08
2018-01-21T04:02:36.432Z,39.99
2018-01-21T04:03:36.390Z,40.08
2018-01-21T04:04:36.351Z,39.99
2018-01-21T04:05:36.310Z,40.08
2018-01-21T04:06:36.269Z,39.99
2018-01-21T04:07:36.229Z,40.28
2018-01-21T04:08:36.188Z,40.28
2018-01-21T04:09:36.148Z,39.99
2018-01-21T04:10:36.106Z,40.08
2018-01-21T04:11:36.067Z,40.08
2018-01-21T04:12:36.027Z,40.47
2018-01-21T04:13:35.985Z,40.47
2018-01-21T04:14:35.945Z,39.99
2018-01-21T04:15:35.902Z,40.47
2018-01-21T04:16:35.860Z,39.89
2018-01-21T04:17:35.823Z,40.08
2018-01-21T04:18:35.782Z,40.37
2018-01-21T04:19:35.742Z,40.08
2018-01-21T04:20:35.700Z,40.08
2018-01-21T04:21:35.659Z,40.37
2018-01-21T04:22:35.620Z,40.47
2018-01-21T04:23:35.578Z,40.28
2018-01-21T04:24:35.538Z,40.08
2018-01-21T04:25:35.496Z,40.18
2018-01-21T04:26:35.457Z,39.99
2018-01-21T04:27:35.415Z,40.18
2018-01-21T04:28:35.376Z,40.56
2018-01-21T04:29:35.337Z,40.47
2018-01-21T04:30:36.301Z,40.56
2018-01-21T04:31:35.253Z,40.56
2018-01-21T04:32:36.223Z,40.66
2018-01-21T04:33:35.174Z,40.37
2018-01-21T04:34:35.131Z,40.66
2018-01-21T04:35:35.093Z,40.66
2018-01-21T04:36:35.049Z,40.56
2018-01-21T04:37:35.009Z,40.66
2018-01-21T04:38:34.968Z,40.76
2018-01-21T04:39:34.926Z,40.76
2018-01-21T04:40:34.887Z,40.66
2018-01-21T04:41:34.844Z,40.76
2018-01-21T04:42:34.804Z,40.66
2018-01-21T04:43:34.767Z,40.66
2018-01-21T04:44:34.723Z,40.76
2018-01-21T04:45:34.685Z,40.66
2018-01-21T04:46:34.640Z,40.66
2018-01-21T04:47:34.604Z,40.66
2018-01-21T04:48:34.562Z,40.66
2018-01-21T04:49:34.519Z,40.66
2018-01-21T04:50:34.485Z,40.64
2018-01-21T04:51:34.438Z,40.55
2018-01-21T04:52:34.395Z,40.85
2018-01-21T04:53:34.357Z,40.66
2018-01-21T04:54:34.318Z,40.66
2018-01-21T04:55:34.274Z,41.14
2018-01-21T04:56:34.232Z,41.14
2018-01-21T04:57:34.193Z,40.56
2018-01-21T04:58:34.151Z,41.05
2018-01-21T04:59:34.110Z,41.14
2018-01-21T05:00:34.070Z,41.24
2018-01-21T05:01:34.030Z,40.47
2018-01-21T05:02:33.987Z,41.02
2018-01-21T05:03:33.946Z,40.28
2018-01-21T05:04:33.907Z,41.14
2018-01-21T05:05:33.867Z,41.14
2018-01-21T05:06:33.825Z,41.14
2018-01-21T05:07:33.786Z,40.28
2018-01-21T05:08:33.743Z,41.05
2018-01-21T05:09:33.705Z,41.14
2018-01-21T05:10:34.678Z,41.14
2018-01-21T05:11:33.620Z,41.14
2018-01-21T05:12:33.581Z,41.14
2018-01-21T05:13:33.540Z,40.76
2018-01-21T05:14:33.498Z,40.66
2018-01-21T05:15:33.459Z,40.76
2018-01-21T05:16:33.417Z,40.76
2018-01-21T05:17:33.376Z,40.76
2018-01-21T05:18:33.336Z,40.66
2018-01-21T05:19:33.295Z,40.76
2018-01-21T05:20:33.253Z,40.66
2018-01-21T05:21:33.214Z,40.47
2018-01-21T05:22:33.171Z,40.47
2018-01-21T05:23:33.130Z,40.47
2018-01-21T05:24:33.088Z,40.18
2018-01-21T05:25:33.050Z,40.28
2018-01-21T05:26:33.008Z,40.08
2018-01-21T05:27:32.966Z,40.47
2018-01-21T05:28:32.930Z,40.18
2018-01-21T05:29:32.887Z,40.28
2018-01-21T05:30:32.844Z,39.99
2018-01-21T05:31:32.800Z,40.08
2018-01-21T05:32:32.765Z,39.99
2018-01-21T05:33:32.724Z,39.99
2018-01-21T05:34:32.682Z,39.99
2018-01-21T05:35:32.642Z,39.79
2018-01-21T05:36:32.600Z,40.28
2018-01-21T05:37:32.559Z,40.28
2018-01-21T05:38:32.518Z,39.51
2018-01-21T05:39:32.478Z,40.18
2018-01-21T05:40:32.437Z,39.70
2018-01-21T05:41:32.396Z,39.51
2018-01-21T05:42:32.352Z,39.70
2018-01-21T05:43:32.315Z,39.89
2018-01-21T05:44:32.274Z,40.08
2018-01-21T05:45:32.234Z,39.99
2018-01-21T05:46:32.193Z,40.18
2018-01-21T05:47:32.152Z,40.28
2018-01-21T05:48:32.111Z,40.28
2018-01-21T05:49:32.075Z,40.28
2018-01-21T05:50:32.028Z,40.28
2018-01-21T05:51:31.997Z,40.28
2018-01-21T05:52:31.951Z,40.28
2018-01-21T05:53:31.907Z,40.18
2018-01-21T05:54:31.863Z,40.08
2018-01-21T05:55:31.823Z,39.79
2018-01-21T05:56:31.786Z,40.18
2018-01-21T05:57:31.745Z,39.91
2018-01-21T05:58:31.703Z,39.91
2018-01-21T05:59:31.663Z,39.81
2018-01-21T06:00:31.624Z,40.01
2018-01-21T06:01:31.582Z,39.81
2018-01-21T06:02:31.541Z,40.01
2018-01-21T06:03:31.497Z,39.91
2018-01-21T06:04:31.461Z,39.91
2018-01-21T06:05:31.471Z,39.91
2018-01-21T06:06:31.378Z,39.91
2018-01-21T06:07:31.337Z,40.01
2018-01-21T06:08:31.297Z,39.91
2018-01-21T06:09:31.257Z,39.70
2018-01-21T06:10:31.217Z,39.51
2018-01-21T06:11:31.176Z,40.18
2018-01-21T06:12:31.135Z,39.99
2018-01-21T06:13:31.095Z,39.70
2018-01-21T06:14:31.053Z,39.81
2018-01-21T06:15:31.013Z,40.08
2018-01-21T06:16:30.972Z,39.89
2018-01-21T06:17:30.932Z,40.28
2018-01-21T06:18:30.890Z,40.28
2018-01-21T06:19:30.850Z,40.28
2018-01-21T06:20:30.810Z,40.18
2018-01-21T06:21:30.772Z,40.08
2018-01-21T06:22:30.734Z,40.28
2018-01-21T06:23:30.687Z,40.28
2018-01-21T06:24:30.649Z,40.28
2018-01-21T06:25:30.607Z,40.28
2018-01-21T06:26:30.565Z,40.37
2018-01-21T06:27:30.526Z,40.18
2018-01-21T06:28:30.487Z,40.08
2018-01-21T06:29:30.442Z,40.08
2018-01-21T06:30:30.403Z,40.08
2018-01-21T06:31:30.363Z,40.28
2018-01-21T06:32:30.322Z,40.08
2018-01-21T06:33:30.282Z,40.28
2018-01-21T06:34:30.243Z,40.08
2018-01-21T06:35:30.201Z,40.18
2018-01-21T06:36:30.160Z,40.18
2018-01-21T06:37:30.121Z,40.37
2018-01-21T06:38:30.078Z,40.08
2018-01-21T06:39:30.037Z,40.18
2018-01-21T06:40:29.999Z,40.28
2018-01-21T06:41:29.955Z,40.37
2018-01-21T06:42:29.917Z,40.28
2018-01-21T06:43:29.882Z,40.28
2018-01-21T06:44:29.835Z,40.47
2018-01-21T06:45:29.796Z,39.89
2018-01-21T06:46:29.752Z,40.18
2018-01-21T06:47:29.712Z,40.08
2018-01-21T06:48:29.672Z,40.08
2018-01-21T06:49:29.633Z,40.18
2018-01-21T06:50:29.593Z,40.08
2018-01-21T06:51:29.548Z,40.08
2018-01-21T06:52:29.510Z,40.08
2018-01-21T06:53:29.468Z,39.99
2018-01-21T06:54:29.426Z,40.18
2018-01-21T06:55:29.385Z,40.47
2018-01-21T06:56:29.345Z,40.56
2018-01-21T06:57:29.306Z,40.08
2018-01-21T06:58:29.264Z,40.56
2018-01-21T06:59:29.223Z,40.47
2018-01-21T07:00:29.185Z,40.56
2018-01-21T07:01:29.142Z,40.56
2018-01-21T07:02:29.096Z,40.56
2018-01-21T07:03:29.060Z,40.56
2018-01-21T07:04:29.021Z,40.56
2018-01-21T07:05:28.986Z,40.56
2018-01-21T07:06:28.937Z,40.47
2018-01-21T07:07:28.897Z,40.47
2018-01-21T07:08:28.856Z,40.76
2018-01-21T07:09:28.817Z,40.66
2018-01-21T07:10:28.774Z,40.95
2018-01-21T07:11:28.734Z,40.95
2018-01-21T07:12:28.695Z,40.56
2018-01-21T07:13:28.657Z,40.66
2018-01-21T07:14:28.611Z,40.76
2018-01-21T07:15:28.570Z,40.66
2018-01-21T07:16:28.533Z,40.66
2018-01-21T07:17:28.490Z,40.76
2018-01-21T07:18:28.452Z,40.76
2018-01-21T07:19:28.411Z,40.95
2018-01-21T07:20:28.372Z,40.76
2018-01-21T07:21:28.329Z,40.85
2018-01-21T07:22:28.288Z,40.76
2018-01-21T07:23:28.244Z,40.85
2018-01-21T07:24:28.203Z,40.66
2018-01-21T07:25:28.162Z,40.85
2018-01-21T07:26:28.121Z,40.76
2018-01-21T07:27:28.079Z,40.85
2018-01-21T07:28:28.039Z,40.95
2018-01-21T07:29:27.999Z,40.85
2018-01-21T07:30:27.957Z,40.56
2018-01-21T07:31:27.916Z,39.99
2018-01-21T07:32:27.876Z,40.37
2018-01-21T07:33:27.834Z,39.89
2018-01-21T07:34:27.793Z,39.70
2018-01-21T07:35:27.754Z,39.79
2018-01-21T07:36:27.714Z,39.43
2018-01-21T07:37:27.676Z,39.43
2018-01-21T07:38:27.630Z,39.53
2018-01-21T07:39:27.589Z,39.72
2018-01-21T07:40:27.555Z,39.62
2018-01-21T07:41:27.508Z,39.53
2018-01-21T07:42:27.466Z,39.24
2018-01-21T07:43:27.426Z,39.62
2018-01-21T07:44:27.413Z,39.72
2018-01-21T07:45:27.343Z,39.14
2018-01-21T07:46:27.303Z,39.04
2018-01-21T07:47:27.265Z,39.04
2018-01-21T07:48:27.221Z,38.85
2018-01-21T07:49:27.178Z,38.85
2018-01-21T07:50:27.134Z,39.04
2018-01-21T07:51:27.099Z,38.95
2018-01-21T07:52:27.059Z,38.95
2018-01-21T07:53:27.021Z,38.85
2018-01-21T07:54:26.977Z,38.85
2018-01-21T07:55:26.933Z,38.47
2018-01-21T07:56:26.893Z,38.66
2018-01-21T07:57:26.854Z,38.56
2018-01-21T07:58:26.812Z,38.56
2018-01-21T07:59:26.773Z,38.49
2018-01-21T08:00:26.731Z,38.68
2018-01-21T08:01:26.697Z,38.29
2018-01-21T08:02:26.651Z,38.47
2018-01-21T08:03:26.609Z,38.47
2018-01-21T08:04:26.569Z,38.28
2018-01-21T08:05:26.527Z,38.28
2018-01-21T08:06:26.487Z,38.28
2018-01-21T08:07:26.446Z,38.29
2018-01-21T08:08:26.406Z,38.49
2018-01-21T08:09:26.364Z,38.20
2018-01-21T08:10:26.319Z,38.29
2018-01-21T08:11:26.284Z,38.20
2018-01-21T08:12:26.243Z,38.29
2018-01-21T08:13:26.202Z,38.29
2018-01-21T08:14:26.163Z,38.01
2018-01-21T08:15:26.119Z,38.01
2018-01-21T08:16:26.080Z,37.91
2018-01-21T08:17:26.042Z,37.91
2018-01-21T08:18:25.999Z,37.91
2018-01-21T08:19:25.959Z,38.01
2018-01-21T08:20:25.918Z,38.01
2018-01-21T08:21:25.881Z,37.91
2018-01-21T08:22:25.838Z,38.01
2018-01-21T08:23:25.797Z,37.91
2018-01-21T08:24:25.757Z,37.81
2018-01-21T08:25:25.719Z,37.91
2018-01-21T08:26:25.676Z,37.91
2018-01-21T08:27:25.635Z,37.91
2018-01-21T08:28:25.593Z,38.01
2018-01-21T08:29:25.556Z,38.01
2018-01-21T08:30:25.514Z,38.01
2018-01-21T08:31:25.473Z,37.91
2018-01-21T08:32:25.434Z,38.01
2018-01-21T08:33:25.394Z,38.01
2018-01-21T08:34:25.354Z,37.91
2018-01-21T08:35:25.312Z,37.91
2018-01-21T08:36:25.273Z,38.20
2018-01-21T08:37:25.237Z,38.20
2018-01-21T08:38:25.190Z,38.29
2018-01-21T08:39:25.150Z,38.18
2018-01-21T08:40:25.109Z,38.39
2018-01-21T08:41:25.072Z,38.20
2018-01-21T08:42:25.029Z,38.37
2018-01-21T08:43:24.986Z,38.18
2018-01-21T08:44:24.952Z,38.47
2018-01-21T08:45:24.907Z,38.56
2018-01-21T08:46:24.868Z,38.28
2018-01-21T08:47:24.828Z,38.37
2018-01-21T08:48:24.786Z,38.37
2018-01-21T08:49:24.763Z,38.20
2018-01-21T08:50:24.705Z,38.37
2018-01-21T08:51:24.664Z,38.37
2018-01-21T08:52:24.623Z,38.29
2018-01-21T08:53:24.586Z,38.37
2018-01-21T08:54:24.544Z,38.37
2018-01-21T08:55:24.502Z,38.29
2018-01-21T08:56:24.463Z,38.29
2018-01-21T08:57:24.422Z,38.20
2018-01-21T08:58:24.382Z,37.91
2018-01-21T08:59:24.341Z,38.01
2018-01-21T09:00:24.303Z,38.01
2018-01-21T09:01:24.265Z,37.91
2018-01-21T09:02:24.229Z,37.62
2018-01-21T09:03:24.180Z,37.72
2018-01-21T09:04:24.139Z,37.52
2018-01-21T09:05:24.101Z,37.35
2018-01-21T09:06:24.059Z,37.26
2018-01-21T09:07:24.020Z,37.45
2018-01-21T09:08:23.983Z,37.16
2018-01-21T09:09:23.943Z,37.16
2018-01-21T09:10:23.898Z,37.04
2018-01-21T09:11:23.860Z,37.43
2018-01-21T09:12:23.821Z,37.52
2018-01-21T09:13:23.779Z,37.52
2018-01-21T09:14:23.738Z,37.72
2018-01-21T09:15:23.698Z,37.72
2018-01-21T09:16:23.658Z,37.52
2018-01-21T09:17:23.617Z,37.52
2018-01-21T09:18:23.583Z,37.52
2018-01-21T09:19:23.544Z,37.43
2018-01-21T09:20:23.498Z,37.43
2018-01-21T09:21:23.463Z,37.52
2018-01-21T09:22:23.416Z,37.52
2018-01-21T09:23:23.397Z,37.62
2018-01-21T09:24:23.332Z,37.62
2018-01-21T09:25:23.293Z,37.81
2018-01-21T09:26:23.256Z,37.81
2018-01-21T09:27:23.216Z,37.81
2018-01-21T09:28:23.176Z,37.72
2018-01-21T09:29:23.142Z,37.72
2018-01-21T09:30:23.095Z,37.91
2018-01-21T09:31:23.055Z,37.91
2018-01-21T09:32:23.014Z,37.91
2018-01-21T09:33:22.976Z,37.81
2018-01-21T09:34:22.934Z,37.91
2018-01-21T09:35:22.895Z,37.91
2018-01-21T09:36:22.853Z,37.91
2018-01-21T09:37:22.821Z,37.91
2018-01-21T09:38:22.772Z,37.91
2018-01-21T09:39:22.733Z,37.91
2018-01-21T09:40:22.694Z,37.91
2018-01-21T09:41:22.652Z,38.01
2018-01-21T09:42:22.611Z,37.91
2018-01-21T09:43:22.572Z,37.91
2018-01-21T09:44:22.532Z,37.91
2018-01-21T09:45:22.492Z,38.01
2018-01-21T09:46:22.452Z,38.01
2018-01-21T09:47:22.408Z,38.01
2018-01-21T09:48:22.370Z,37.91
2018-01-21T09:49:22.330Z,37.91
2018-01-21T09:50:22.283Z,37.91
2018-01-21T09:51:22.248Z,37.72
2018-01-21T09:52:22.211Z,37.72
2018-01-21T09:53:22.181Z,37.62
2018-01-21T09:54:22.127Z,37.52
2018-01-21T09:55:22.087Z,37.43
2018-01-21T09:56:22.042Z,37.24
2018-01-21T09:57:22.007Z,37.26
2018-01-21T09:58:21.965Z,37.26
2018-01-21T09:59:21.926Z,37.16
2018-01-21T10:00:21.886Z,36.97
2018-01-21T10:01:21.846Z,36.77
2018-01-21T10:02:21.805Z,36.77
2018-01-21T10:03:21.766Z,36.68
2018-01-21T10:04:21.725Z,36.68
2018-01-21T10:05:21.686Z,36.97
2018-01-21T10:06:21.643Z,36.87
2018-01-21T10:07:21.605Z,36.77
2018-01-21T10:08:21.566Z,36.97
2018-01-21T10:09:21.525Z,36.97
2018-01-21T10:10:21.484Z,36.77
2018-01-21T10:11:21.443Z,37.06
2018-01-21T10:12:21.406Z,36.87
2018-01-21T10:13:21.365Z,37.16
2018-01-21T10:14:21.325Z,37.16
2018-01-21T10:15:21.285Z,36.87
2018-01-21T10:16:21.244Z,36.95
2018-01-21T10:17:21.208Z,36.97
2018-01-21T10:18:21.164Z,36.97
2018-01-21T10:19:21.123Z,37.06
2018-01-21T10:20:21.087Z,36.77
2018-01-21T10:21:21.048Z,36.77
2018-01-21T10:22:21.003Z,36.68
2018-01-21T10:23:20.969Z,36.58
2018-01-21T10:24:20.923Z,36.87
2018-01-21T10:25:20.884Z,36.49
2018-01-21T10:26:20.843Z,36.87
2018-01-21T10:27:20.802Z,36.58
2018-01-21T10:28:20.771Z,36.39
2018-01-21T10:29:20.723Z,36.49
2018-01-21T10:30:20.682Z,36.29
2018-01-21T10:31:20.641Z,36.49
2018-01-21T10:32:20.606Z,36.77
2018-01-21T10:33:20.557Z,36.58
2018-01-21T10:34:20.522Z,36.58
2018-01-21T10:35:20.483Z,36.19
2018-01-21T10:36:20.443Z,36.19
2018-01-21T10:37:20.402Z,36.58
2018-01-21T10:38:20.362Z,36.29
2018-01-21T10:39:20.321Z,36.29
2018-01-21T10:40:20.281Z,36.10
2018-01-21T10:41:20.243Z,36.29
2018-01-21T10:42:20.201Z,36.49
2018-01-21T10:43:20.161Z,36.68
2018-01-21T10:44:20.125Z,36.68
2018-01-21T10:45:20.083Z,36.87
2018-01-21T10:46:20.041Z,36.77
2018-01-21T10:47:20.002Z,36.77
2018-01-21T10:48:19.960Z,36.77
2018-01-21T10:49:19.931Z,36.68
2018-01-21T10:50:19.881Z,36.77
2018-01-21T10:51:19.841Z,36.68
2018-01-21T10:52:19.799Z,36.68
2018-01-21T10:53:19.760Z,36.77
2018-01-21T10:54:19.720Z,36.58
2018-01-21T10:55:19.680Z,36.68
2018-01-21T10:56:19.641Z,36.87
2018-01-21T10:57:19.601Z,36.87
2018-01-21T10:58:19.614Z,36.97
2018-01-21T10:59:19.520Z,37.04
2018-01-21T11:00:19.481Z,37.04
2018-01-21T11:01:19.441Z,37.24
2018-01-21T11:02:19.400Z,37.14
2018-01-21T11:03:19.361Z,37.34
2018-01-21T11:04:19.321Z,37.43
2018-01-21T11:05:19.280Z,37.43
2018-01-21T11:06:19.239Z,37.24
2018-01-21T11:07:19.196Z,37.52
2018-01-21T11:08:19.160Z,37.24
2018-01-21T11:09:19.120Z,37.43
2018-01-21T11:10:19.079Z,37.43
2018-01-21T11:11:19.039Z,37.24
2018-01-21T11:12:18.999Z,37.43
2018-01-21T11:13:18.968Z,37.43
2018-01-21T11:14:18.919Z,37.24
2018-01-21T11:15:18.879Z,37.24
2018-01-21T11:16:18.840Z,37.24
2018-01-21T11:17:18.799Z,37.34
2018-01-21T11:18:18.760Z,37.34
2018-01-21T11:19:18.719Z,37.43
2018-01-21T11:20:18.678Z,37.43
2018-01-21T11:21:18.638Z,37.52
2018-01-21T11:22:18.598Z,37.34
2018-01-21T11:23:18.558Z,37.62
2018-01-21T11:24:18.528Z,37.81
2018-01-21T11:25:18.505Z,37.81
2018-01-21T11:26:18.438Z,37.72
2018-01-21T11:27:18.398Z,37.91
2018-01-21T11:28:18.357Z,37.91
2018-01-21T11:29:18.319Z,37.81
2018-01-21T11:30:18.277Z,37.72
2018-01-21T11:31:18.238Z,37.81
2018-01-21T11:32:18.197Z,37.91
2018-01-21T11:33:18.158Z,37.62
2018-01-21T11:34:18.117Z,37.72
2018-01-21T11:35:18.077Z,37.81
2018-01-21T11:36:18.037Z,37.62
2018-01-21T11:37:17.996Z,37.43
2018-01-21T11:38:17.957Z,37.43
2018-01-21T11:39:17.914Z,37.52
2018-01-21T11:40:17.875Z,37.52
2018-01-21T11:41:17.837Z,37.52
2018-01-21T11:42:17.796Z,37.52
2018-01-21T11:43:17.756Z,37.34
2018-01-21T11:44:17.719Z,37.52
2018-01-21T11:45:17.675Z,37.52
2018-01-21T11:46:17.635Z,37.52
2018-01-21T11:47:17.596Z,37.52
2018-01-21T11:48:17.553Z,37.62
2018-01-21T11:49:17.516Z,37.52
2018-01-21T11:50:17.517Z,37.52
2018-01-21T11:51:17.431Z,37.52
2018-01-21T11:52:17.394Z,37.43
2018-01-21T11:53:17.354Z,37.43
2018-01-21T11:54:17.312Z,37.52
2018-01-21T11:55:17.274Z,37.52
2018-01-21T11:56:17.235Z,37.72
2018-01-21T11:57:17.192Z,37.43
2018-01-21T11:58:17.151Z,37.52
2018-01-21T11:59:17.113Z,37.52
2018-01-21T12:00:17.066Z,37.52
2018-01-21T12:01:17.032Z,37.43
2018-01-21T12:02:16.989Z,37.34
2018-01-21T12:03:16.956Z,37.62
2018-01-21T12:04:16.910Z,37.52
2018-01-21T12:05:16.871Z,37.52
2018-01-21T12:06:16.829Z,37.52
2018-01-21T12:07:16.789Z,37.43
2018-01-21T12:08:16.746Z,37.62
2018-01-21T12:09:16.708Z,37.62
2018-01-21T12:10:16.665Z,37.72
2018-01-21T12:11:16.626Z,37.91
2018-01-21T12:12:16.587Z,37.81
2018-01-21T12:13:16.550Z,37.81
2018-01-21T12:14:16.505Z,37.72
2018-01-21T12:15:16.465Z,37.72
2018-01-21T12:16:16.424Z,37.62
2018-01-21T12:17:16.386Z,37.72
2018-01-21T12:18:16.360Z,37.72
2018-01-21T12:19:16.310Z,37.72
2018-01-21T12:20:16.265Z,37.91
2018-01-21T12:21:16.229Z,37.62
2018-01-21T12:22:16.181Z,37.52
2018-01-21T12:23:16.144Z,37.91
2018-01-21T12:24:16.104Z,37.81
2018-01-21T12:25:16.064Z,37.91
2018-01-21T12:26:16.023Z,37.91
2018-01-21T12:27:15.983Z,37.81
2018-01-21T12:28:15.941Z,37.81
2018-01-21T12:29:15.911Z,37.91
2018-01-21T12:30:15.862Z,37.43
2018-01-21T12:31:15.821Z,37.34
2018-01-21T12:32:15.780Z,37.45
2018-01-21T12:33:15.739Z,37.34
2018-01-21T12:34:15.703Z,37.06
2018-01-21T12:35:15.661Z,36.87
2018-01-21T12:36:15.621Z,37.06
2018-01-21T12:37:15.578Z,36.87
2018-01-21T12:38:15.539Z,36.77
2018-01-21T12:39:15.500Z,36.49
2018-01-21T12:40:15.466Z,36.39
2018-01-21T12:41:15.418Z,36.11
2018-01-21T12:42:15.377Z,36.29
2018-01-21T12:43:15.339Z,36.51
2018-01-21T12:44:15.305Z,36.41
2018-01-21T12:45:15.258Z,36.49
2018-01-21T12:46:15.217Z,36.58
2018-01-21T12:47:15.226Z,36.60
2018-01-21T12:48:15.137Z,36.11
2018-01-21T12:49:15.099Z,36.21
2018-01-21T12:50:15.060Z,36.31
2018-01-21T12:51:15.017Z,36.31
2018-01-21T12:52:14.978Z,36.31